createdAt,value
2018-03-24T00:00:31.532Z,18.87
2018-03-24T00:03:00.561Z,19.42
2018-03-24T00:05:28.796Z,19.00
2018-03-24T00:07:57.812Z,17.45
2018-03-24T00:10:26.104Z,15.52
2018-03-24T00:12:54.351Z,17.35
2018-03-24T00:15:23.437Z,16.25
2018-03-24T00:17:52.464Z,16.80
2018-03-24T00:20:20.740Z,16.77
2018-03-24T00:22:49.016Z,15.77
2018-03-24T00:25:17.253Z,18.30
2018-03-24T00:27:46.284Z,19.30
2018-03-24T00:30:14.560Z,18.73
2018-03-24T00:32:42.797Z,18.52
2018-03-24T00:35:11.837Z,18.25
2018-03-24T00:37:40.102Z,18.73
2018-03-24T00:40:08.344Z,19.15
2018-03-24T00:42:37.473Z,19.30
2018-03-24T00:45:05.720Z,19.12
2018-03-24T00:47:33.961Z,19.27
2018-03-24T00:50:02.200Z,19.20
2018-03-24T00:52:30.480Z,18.52
2018-03-24T00:54:58.740Z,17.33
2018-03-24T00:57:26.979Z,19.90
2018-03-24T00:59:56.020Z,19.25
2018-03-24T01:02:24.256Z,18.98
2018-03-24T01:04:53.283Z,18.85
2018-03-24T01:07:21.523Z,19.92
2018-03-24T01:09:50.551Z,19.92
2018-03-24T01:12:18.788Z,21.02
2018-03-24T01:14:47.790Z,20.62
2018-03-24T01:17:16.796Z,20.85
2018-03-24T01:19:45.081Z,20.88
2018-03-24T01:22:13.323Z,21.00
2018-03-24T01:24:42.330Z,20.70
2018-03-24T01:27:10.577Z,21.10
2018-03-24T01:29:38.899Z,23.23
2018-03-24T01:32:07.144Z,22.17
2018-03-24T01:34:36.175Z,23.05
2018-03-24T01:37:04.448Z,21.77
2018-03-24T01:39:32.692Z,22.30
2018-03-24T01:42:00.933Z,23.08
2018-03-24T01:44:29.181Z,23.90
2018-03-24T01:46:57.417Z,22.60
2018-03-24T01:49:25.662Z,21.77
2018-03-24T01:51:54.020Z,22.08
2018-03-24T01:54:22.272Z,22.10
2018-03-24T01:56:50.548Z,22.33
2018-03-24T01:59:18.789Z,22.58
2018-03-24T02:01:47.789Z,23.38
2018-03-24T02:04:16.052Z,23.45
2018-03-24T02:06:45.081Z,23.30
2018-03-24T02:09:13.320Z,23.85
2018-03-24T02:11:42.328Z,22.98
2018-03-24T02:14:10.621Z,21.83
2018-03-24T02:16:38.896Z,24.37
2018-03-24T02:19:07.132Z,22.95
2018-03-24T02:21:36.157Z,25.60
2018-03-24T02:24:04.392Z,25.65
2018-03-24T02:26:32.637Z,24.20
2018-03-24T02:29:00.885Z,25.45
2018-03-24T02:31:29.161Z,22.70
2018-03-24T02:33:57.406Z,23.80
2018-03-24T02:36:26.409Z,23.77
2018-03-24T02:38:54.705Z,23.58
2018-03-24T02:41:22.952Z,22.87
2018-03-24T02:43:51.987Z,22.70
2018-03-24T02:46:20.240Z,22.05
2018-03-24T02:48:48.529Z,21.98
2018-03-24T02:51:16.762Z,23.65
2018-03-24T02:53:45.777Z,23.02
2018-03-24T02:56:14.013Z,22.62
2018-03-24T02:58:42.355Z,24.02
2018-03-24T03:01:10.585Z,24.48
2018-03-24T03:03:39.593Z,23.42
2018-03-24T03:06:07.830Z,23.30
2018-03-24T03:08:36.069Z,23.83
2018-03-24T03:11:04.308Z,22.65
2018-03-24T03:13:33.425Z,22.40
2018-03-24T03:16:01.709Z,23.42
2018-03-24T03:18:29.944Z,22.40
2018-03-24T03:20:58.952Z,22.95
2018-03-24T03:23:27.192Z,23.05
2018-03-24T03:25:55.521Z,23.67
2018-03-24T03:28:23.756Z,23.58
2018-03-24T03:31:10.589Z,24.17
2018-03-24T03:33:38.827Z,25.05
2018-03-24T03:36:07.157Z,23.87
2018-03-24T03:38:35.404Z,23.85
2018-03-24T03:41:04.443Z,23.15
2018-03-24T03:43:32.709Z,22.92
2018-03-24T03:46:00.980Z,23.75
2018-03-24T03:48:29.257Z,25.55
2018-03-24T03:50:57.528Z,22.05
2018-03-24T03:53:25.769Z,24.37
2018-03-24T03:55:54.776Z,24.12
2018-03-24T03:58:23.017Z,24.60
2018-03-24T04:00:51.352Z,24.02
2018-03-24T04:03:19.620Z,23.40
2018-03-24T04:05:47.896Z,24.33
2018-03-24T04:08:16.174Z,23.35
2018-03-24T04:10:44.452Z,23.70
2018-03-24T04:13:12.726Z,22.62
2018-03-24T04:15:40.964Z,21.98
2018-03-24T04:18:09.976Z,22.62
2018-03-24T04:20:38.265Z,23.70
2018-03-24T04:23:06.508Z,23.85
2018-03-24T04:25:35.541Z,22.65
2018-03-24T04:28:03.791Z,24.25
2018-03-24T04:30:32.028Z,23.17
2018-03-24T04:33:00.279Z,24.83
2018-03-24T04:35:28.537Z,23.02
2018-03-24T04:37:56.808Z,23.40
2018-03-24T04:40:25.051Z,21.83
2018-03-24T04:42:54.072Z,23.50
2018-03-24T04:45:22.308Z,22.52
2018-03-24T04:47:51.348Z,24.25
2018-03-24T04:50:19.588Z,22.77
2018-03-24T04:52:48.592Z,22.17
2018-03-24T04:55:16.907Z,23.10
2018-03-24T04:57:45.175Z,22.17
2018-03-24T05:00:13.412Z,22.67
2018-03-24T05:02:42.416Z,22.13
2018-03-24T05:05:10.715Z,23.02
2018-03-24T05:07:38.956Z,21.62
2018-03-24T05:10:07.964Z,24.15
2018-03-24T05:12:36.248Z,22.45
2018-03-24T05:15:04.525Z,21.62
2018-03-24T05:17:32.805Z,22.37
2018-03-24T05:20:01.080Z,22.50
2018-03-24T05:22:29.348Z,22.33
2018-03-24T05:24:57.632Z,23.35
2018-03-24T05:27:25.900Z,23.27
2018-03-24T05:29:54.149Z,23.20
2018-03-24T05:32:23.176Z,22.55
2018-03-24T05:34:51.424Z,22.55
2018-03-24T05:37:19.665Z,22.60
2018-03-24T05:39:47.908Z,21.90
2018-03-24T05:42:16.168Z,24.35
2018-03-24T05:44:44.420Z,24.55
2018-03-24T05:47:12.657Z,22.73
2018-03-24T05:49:41.004Z,22.40
2018-03-24T05:52:10.100Z,23.38
2018-03-24T05:54:38.365Z,25.00
2018-03-24T05:57:06.639Z,23.02
2018-03-24T05:59:34.916Z,21.70
2018-03-24T06:02:03.153Z,22.50
2018-03-24T06:04:32.185Z,24.05
2018-03-24T06:07:00.434Z,21.58
2018-03-24T06:09:28.669Z,22.83
2018-03-24T06:11:57.008Z,22.75
2018-03-24T06:14:25.289Z,22.75
2018-03-24T06:16:53.560Z,24.42
2018-03-24T06:19:21.796Z,25.20
2018-03-24T06:21:50.824Z,24.30
2018-03-24T06:24:19.104Z,23.70
2018-03-24T06:26:47.357Z,22.58
2018-03-24T06:29:16.353Z,22.75
2018-03-24T06:31:59.477Z,23.48
2018-03-24T06:34:28.126Z,23.52
2018-03-24T06:37:00.297Z,23.92
2018-03-24T06:39:28.532Z,24.27
2018-03-24T06:41:56.892Z,23.02
2018-03-24T06:44:25.128Z,22.77
2018-03-24T06:46:54.141Z,22.17
2018-03-24T06:49:22.380Z,22.60
2018-03-24T06:51:50.620Z,23.05
2018-03-24T06:54:18.888Z,23.27
2018-03-24T06:56:47.122Z,22.95
2018-03-24T06:59:16.133Z,23.20
2018-03-24T07:01:44.383Z,25.00
2018-03-24T07:04:12.633Z,24.25
2018-03-24T07:06:40.876Z,25.30
2018-03-24T07:09:09.128Z,24.90
2018-03-24T07:11:38.152Z,26.37
2018-03-24T07:14:06.733Z,25.92
2018-03-24T07:16:35.010Z,26.37
2018-03-24T07:19:03.269Z,27.10
2018-03-24T07:21:31.563Z,25.92
2018-03-24T07:23:59.800Z,26.05
2018-03-24T07:26:28.821Z,24.98
2018-03-24T07:28:57.101Z,26.17
2018-03-24T07:31:25.375Z,26.48
2018-03-24T07:33:53.584Z,27.75
2018-03-24T07:36:21.829Z,26.55
2018-03-24T07:38:50.133Z,26.62
2018-03-24T07:41:18.356Z,28.83
2018-03-24T07:43:47.520Z,28.12
2018-03-24T07:46:16.532Z,29.73
2018-03-24T07:48:44.836Z,28.00
2018-03-24T07:51:11.588Z,26.50
2018-03-24T07:53:37.596Z,25.90
2018-03-24T07:56:03.661Z,26.60
2018-03-24T07:58:29.685Z,26.90
2018-03-24T08:00:55.936Z,25.60
2018-03-24T08:03:22.792Z,24.15
2018-03-24T08:05:48.872Z,24.85
2018-03-24T08:08:14.888Z,23.83
2018-03-24T08:10:40.892Z,25.33
2018-03-24T08:13:06.900Z,24.98
2018-03-24T08:15:32.925Z,25.08
2018-03-24T08:17:58.970Z,27.35
2018-03-24T08:20:25.008Z,26.27
2018-03-24T08:22:51.074Z,25.90
2018-03-24T08:25:17.105Z,26.50
2018-03-24T08:27:43.101Z,25.33
2018-03-24T08:30:09.860Z,25.17
2018-03-24T08:32:35.868Z,25.85
2018-03-24T08:35:02.631Z,25.75
2018-03-24T08:37:28.683Z,25.20
2018-03-24T08:39:54.694Z,24.67
2018-03-24T08:42:20.692Z,26.70
2018-03-24T08:44:46.720Z,24.77
2018-03-24T08:47:12.720Z,25.53
2018-03-24T08:49:39.528Z,25.10
2018-03-24T08:52:05.589Z,25.47
2018-03-24T08:54:32.335Z,26.30
2018-03-24T08:56:59.077Z,25.83
2018-03-24T08:59:25.113Z,25.83
2018-03-24T09:01:51.135Z,24.60
2018-03-24T09:04:17.137Z,25.27
2018-03-24T09:06:43.892Z,24.63
2018-03-24T09:09:09.957Z,24.50
2018-03-24T09:11:35.968Z,25.80
2018-03-24T09:14:01.972Z,23.20
2018-03-24T09:16:27.990Z,23.17
2018-03-24T09:18:54.005Z,23.95
2018-03-24T09:21:20.017Z,25.90
2018-03-24T09:23:46.782Z,27.75
2018-03-24T09:26:12.844Z,25.80
2018-03-24T09:28:38.856Z,27.23
2018-03-24T09:31:04.956Z,26.15
2018-03-24T09:33:30.960Z,27.10
2018-03-24T09:35:56.968Z,27.42
2018-03-24T09:38:23.725Z,27.08
2018-03-24T09:40:49.813Z,26.17
2018-03-24T09:43:15.833Z,25.20
2018-03-24T09:45:41.945Z,24.10
2018-03-24T09:48:07.968Z,23.73
2018-03-24T09:50:33.976Z,18.08
2018-03-24T09:53:00.120Z,17.87
2018-03-24T09:55:26.924Z,17.95
2018-03-24T09:57:53.004Z,11.12
2018-03-24T10:00:19.816Z,13.57
2018-03-24T10:02:45.881Z,12.55
2018-03-24T10:05:12.647Z,13.05
2018-03-24T10:07:38.632Z,12.18
2018-03-24T10:10:04.632Z,11.37
2018-03-24T10:12:30.640Z,11.02
2018-03-24T10:14:56.940Z,10.27
2018-03-24T10:17:23.004Z,11.15
2018-03-24T10:19:49.012Z,10.30
2018-03-24T10:25:17.216Z,11.60
2018-03-24T10:27:45.521Z,11.60
2018-03-24T10:30:14.567Z,11.48
2018-03-24T10:32:42.808Z,12.40
2018-03-24T10:35:11.163Z,11.43
2018-03-24T10:37:45.927Z,11.25
2018-03-24T10:40:14.216Z,12.70
2018-03-24T10:42:42.464Z,12.80
2018-03-24T10:45:10.779Z,12.30
2018-03-24T10:47:39.086Z,12.73
2018-03-24T10:50:07.295Z,11.88
2018-03-24T10:52:35.549Z,11.27
2018-03-24T10:55:04.569Z,11.82
2018-03-24T10:57:32.860Z,11.60
2018-03-24T11:00:01.101Z,10.80
2018-03-24T11:02:30.232Z,12.73
2018-03-24T11:04:58.484Z,11.18
2018-03-24T11:07:26.752Z,11.25
2018-03-24T11:09:55.068Z,12.25
2018-03-24T11:12:23.352Z,11.82
2018-03-24T11:14:51.606Z,11.85
2018-03-24T11:17:20.098Z,12.48
2018-03-24T11:19:48.367Z,12.02
2018-03-24T11:22:16.641Z,12.35
2018-03-24T11:24:44.921Z,11.70
2018-03-24T11:27:13.165Z,11.60
2018-03-24T11:29:41.465Z,11.93
2018-03-24T11:32:09.705Z,11.85
2018-03-24T11:34:38.725Z,11.50
2018-03-24T11:37:06.972Z,12.55
2018-03-24T11:39:35.988Z,12.43
2018-03-24T11:42:04.237Z,12.43
2018-03-24T11:44:33.254Z,12.98
2018-03-24T11:47:01.500Z,12.63
2018-03-24T11:49:30.543Z,14.27
2018-03-24T11:51:58.793Z,13.57
2018-03-24T11:54:38.817Z,13.82
2018-03-24T11:57:07.832Z,14.57
2018-03-24T11:59:36.136Z,14.73
2018-03-24T12:02:04.417Z,13.05
2018-03-24T12:04:32.660Z,14.85
2018-03-24T12:07:00.958Z,13.90
2018-03-24T12:09:29.213Z,14.40
2018-03-24T12:11:57.508Z,13.60
2018-03-24T12:14:25.753Z,13.95
2018-03-24T12:16:54.677Z,14.68
2018-03-24T12:19:22.896Z,13.23
2018-03-24T12:21:51.941Z,14.52
2018-03-24T12:24:20.189Z,13.80
2018-03-24T12:26:48.437Z,13.40
2018-03-24T12:29:16.707Z,13.62
2018-03-24T12:31:45.081Z,15.40
2018-03-24T12:34:14.444Z,15.52
2018-03-24T12:36:42.637Z,15.32
2018-03-24T12:39:10.892Z,14.93
2018-03-24T12:41:39.148Z,14.45
2018-03-24T12:44:07.396Z,14.95
2018-03-24T12:46:35.648Z,15.77
2018-03-24T12:49:03.904Z,14.77
2018-03-24T12:51:32.164Z,14.90
2018-03-24T12:54:00.420Z,14.52
2018-03-24T12:56:28.666Z,15.75
2018-03-24T12:58:56.914Z,16.52
2018-03-24T13:01:25.260Z,16.15
2018-03-24T13:03:53.580Z,15.82
2018-03-24T13:06:21.920Z,17.17
2018-03-24T13:08:50.196Z,17.00
2018-03-24T13:11:18.472Z,16.42
2018-03-24T13:13:46.752Z,18.08
2018-03-24T13:16:15.021Z,16.15
2018-03-24T13:18:43.396Z,16.85
2018-03-24T13:21:11.637Z,17.37
2018-03-24T13:23:40.672Z,16.83
2018-03-24T13:26:08.912Z,15.73
2018-03-24T13:28:37.916Z,17.08
2018-03-24T13:31:06.197Z,15.90
2018-03-24T13:33:35.370Z,16.12
2018-03-24T13:36:04.376Z,16.45
2018-03-24T13:38:32.623Z,17.12
2018-03-24T13:41:00.978Z,17.35
2018-03-24T13:43:29.297Z,16.75
2018-03-24T13:45:59.068Z,15.95
2018-03-24T13:48:28.115Z,15.70
2018-03-24T13:50:56.368Z,17.00
2018-03-24T13:53:25.401Z,17.35
2018-03-24T13:55:53.644Z,17.08
2018-03-24T13:58:22.655Z,16.77
2018-03-24T14:00:50.913Z,16.62
2018-03-24T14:03:19.937Z,16.50
2018-03-24T14:05:48.180Z,16.20
2018-03-24T14:08:17.884Z,17.92
2018-03-24T14:10:46.888Z,17.25
2018-03-24T14:13:15.136Z,15.95
2018-03-24T14:15:43.472Z,17.02
2018-03-24T14:18:11.716Z,16.45
2018-03-24T14:20:40.014Z,17.05
2018-03-24T14:23:08.265Z,18.02
2018-03-24T14:25:36.501Z,16.70
2018-03-24T14:28:04.837Z,17.98
2018-03-24T14:30:33.081Z,17.15
2018-03-24T14:33:02.092Z,16.95
2018-03-24T14:35:30.489Z,18.58
2018-03-24T14:37:58.888Z,16.67
2018-03-24T14:40:27.244Z,16.92
2018-03-24T14:42:55.492Z,16.83
2018-03-24T14:45:23.796Z,17.12
2018-03-24T14:47:52.135Z,17.30
2018-03-24T14:50:21.141Z,17.75
2018-03-24T14:52:49.465Z,17.83
2018-03-24T14:55:17.709Z,17.58
2018-03-24T14:57:45.998Z,17.85
2018-03-24T15:00:14.246Z,16.98
2018-03-24T15:02:42.541Z,18.30
2018-03-24T15:05:10.796Z,18.05
2018-03-24T15:07:39.105Z,16.62
2018-03-24T15:10:07.363Z,17.48
2018-03-24T15:12:35.620Z,17.60
2018-03-24T15:15:04.636Z,18.48
2018-03-24T15:17:32.905Z,18.58
2018-03-24T15:20:01.155Z,17.80
2018-03-24T15:22:29.457Z,17.77
2018-03-24T15:24:57.740Z,19.80
2018-03-24T15:27:25.982Z,18.65
2018-03-24T15:30:07.089Z,17.83
2018-03-24T15:32:57.074Z,18.35
2018-03-24T15:35:31.184Z,19.00
2018-03-24T15:38:00.759Z,17.48
2018-03-24T15:40:29.161Z,17.10
2018-03-24T15:42:57.405Z,18.37
2018-03-24T15:45:26.448Z,17.73
2018-03-24T15:47:54.692Z,17.48
2018-03-24T15:50:22.980Z,19.08
2018-03-24T15:52:51.329Z,17.12
2018-03-24T15:55:20.345Z,16.62
2018-03-24T15:57:48.585Z,15.88
2018-03-24T16:00:16.907Z,14.95
2018-03-24T16:02:45.176Z,15.05
2018-03-24T16:05:13.456Z,15.18
2018-03-24T16:07:41.732Z,15.43
2018-03-24T16:10:10.109Z,15.00
2018-03-24T16:12:38.350Z,13.98
2018-03-24T16:15:07.478Z,15.60
2018-03-24T16:17:35.965Z,15.05
2018-03-24T16:20:04.197Z,16.25
2018-03-24T16:22:33.213Z,16.40
2018-03-24T16:25:01.462Z,16.80
2018-03-24T16:27:30.721Z,17.05
2018-03-24T16:29:58.956Z,16.67
2018-03-24T16:32:27.204Z,16.52
2018-03-24T16:37:42.217Z,15.02
2018-03-24T16:40:10.710Z,15.85
2018-03-24T16:42:39.690Z,16.02
2018-03-24T16:45:07.961Z,15.88
2018-03-24T16:47:36.458Z,16.20
2018-03-24T16:50:04.720Z,14.87
2018-03-24T16:52:33.021Z,15.05
2018-03-24T16:55:01.390Z,14.32
2018-03-24T16:57:29.629Z,14.70
2018-03-24T16:59:57.872Z,14.87
2018-03-24T17:02:26.189Z,14.27
2018-03-24T17:04:55.264Z,15.27
2018-03-24T17:07:24.305Z,14.65
2018-03-24T17:09:52.581Z,15.70
2018-03-24T17:12:20.828Z,14.73
2018-03-24T17:14:50.013Z,15.43
2018-03-24T17:17:19.048Z,15.57
2018-03-24T17:19:47.292Z,14.35
2018-03-24T17:22:15.540Z,15.23
2018-03-24T17:24:43.784Z,15.35
2018-03-24T17:27:12.025Z,15.32
2018-03-24T17:29:40.319Z,16.00
2018-03-24T17:32:08.592Z,15.80
2018-03-24T17:34:36.828Z,14.45
2018-03-24T17:37:05.153Z,15.10
2018-03-24T17:39:33.417Z,14.90
2018-03-24T17:42:01.697Z,16.95
2018-03-24T17:44:29.973Z,17.85
2018-03-24T17:46:58.250Z,18.27
2018-03-24T17:49:26.503Z,21.65
2018-03-24T17:51:54.741Z,20.62
2018-03-24T17:54:22.988Z,20.55
2018-03-24T17:56:51.354Z,24.98
2018-03-24T17:59:19.720Z,23.98
2018-03-24T18:01:47.956Z,24.05
2018-03-24T18:04:17.030Z,25.98
2018-03-24T18:06:45.228Z,28.80
2018-03-24T18:09:14.245Z,32.08
2018-03-24T18:11:42.481Z,32.50
2018-03-24T18:14:10.734Z,36.78
2018-03-24T18:16:38.968Z,39.00
2018-03-24T18:19:07.233Z,44.30
2018-03-24T18:21:35.539Z,39.17
2018-03-24T18:24:03.768Z,36.22
2018-03-24T18:26:32.784Z,31.83
2018-03-24T18:29:01.208Z,31.85
2018-03-24T18:31:29.456Z,29.70
2018-03-24T18:33:57.698Z,24.08
2018-03-24T18:36:26.004Z,22.73
2018-03-24T18:38:54.256Z,19.50
2018-03-24T18:41:22.731Z,19.40
2018-03-24T18:43:50.905Z,18.02
2018-03-24T18:46:19.923Z,17.05
2018-03-24T18:48:48.204Z,17.27
2018-03-24T18:51:16.469Z,17.73
2018-03-24T18:53:44.712Z,19.17
2018-03-24T18:56:13.753Z,18.37
2018-03-24T18:58:42.001Z,19.40
2018-03-24T19:01:10.245Z,19.15
2018-03-24T19:03:38.489Z,20.08
2018-03-24T19:06:06.745Z,22.35
2018-03-24T19:08:35.119Z,20.83
2018-03-24T19:11:03.369Z,19.70
2018-03-24T19:13:32.379Z,19.85
2018-03-24T19:16:00.612Z,21.87
2018-03-24T19:18:29.650Z,19.98
2018-03-24T19:20:57.938Z,21.87
2018-03-24T19:23:26.182Z,20.60
2018-03-24T19:25:55.193Z,21.62
2018-03-24T19:28:23.481Z,23.10
2018-03-24T19:30:51.728Z,21.52
2018-03-24T19:33:19.965Z,25.02
2018-03-24T19:35:48.220Z,23.65
2018-03-24T19:38:16.480Z,25.10
2018-03-24T19:40:44.720Z,20.25
2018-03-24T19:43:13.724Z,19.90
2018-03-24T19:45:42.025Z,17.87
2018-03-24T19:48:10.292Z,17.20
2018-03-24T19:50:38.548Z,14.85
2018-03-24T19:53:06.881Z,16.37
2018-03-24T19:55:35.120Z,15.77
2018-03-24T19:58:03.384Z,16.83
2018-03-24T20:00:31.716Z,16.20
2018-03-24T20:02:59.944Z,14.63
2018-03-24T20:05:28.232Z,15.88
2018-03-24T20:07:56.473Z,16.37
2018-03-24T20:10:24.773Z,15.68
2018-03-24T20:12:53.017Z,17.83
2018-03-24T20:15:22.032Z,17.20
2018-03-24T20:17:50.264Z,15.93
2018-03-24T20:20:18.515Z,14.87
2018-03-24T20:22:47.109Z,15.50
2018-03-24T20:25:15.322Z,15.20
2018-03-24T20:27:44.329Z,14.82
2018-03-24T20:30:12.568Z,16.55
2018-03-24T20:32:40.813Z,16.08
2018-03-24T20:35:09.113Z,15.48
2018-03-24T20:37:37.347Z,14.82
2018-03-24T20:40:05.585Z,14.90
2018-03-24T20:42:34.600Z,15.50
2018-03-24T20:45:02.832Z,13.45
2018-03-24T20:47:31.092Z,15.20
2018-03-24T20:49:59.332Z,14.23
2018-03-24T20:52:27.608Z,15.48
2018-03-24T20:54:55.852Z,14.70
2018-03-24T20:57:24.856Z,16.30
2018-03-24T20:59:53.103Z,14.90
2018-03-24T21:02:21.419Z,16.48
2018-03-24T21:04:49.699Z,14.77
2018-03-24T21:07:17.936Z,15.73
2018-03-24T21:09:46.952Z,17.02
2018-03-24T21:12:15.248Z,18.33
2018-03-24T21:14:43.574Z,18.58
2018-03-24T21:17:11.793Z,19.87
2018-03-24T21:19:40.045Z,25.15
2018-03-24T21:22:08.344Z,21.85
2018-03-24T21:24:36.608Z,19.27
2018-03-24T21:27:04.849Z,18.35
2018-03-24T21:29:33.090Z,16.77
2018-03-24T21:32:01.333Z,16.70
2018-03-24T21:34:29.620Z,16.15
2018-03-24T21:36:57.864Z,15.55
2018-03-24T21:39:26.869Z,15.95
2018-03-24T21:41:55.165Z,15.98
2018-03-24T21:44:23.405Z,15.05
2018-03-24T21:46:52.432Z,14.27
2018-03-24T21:49:20.668Z,15.52
2018-03-24T21:51:49.681Z,14.65
2018-03-24T21:54:17.925Z,16.90
2018-03-24T21:56:46.248Z,16.90
2018-03-24T21:59:14.524Z,16.98
2018-03-24T22:01:42.800Z,16.10
2018-03-24T22:04:11.041Z,15.52
2018-03-24T22:06:40.069Z,14.05
2018-03-24T22:09:08.344Z,14.05
2018-03-24T22:11:36.585Z,13.65
2018-03-24T22:14:05.620Z,13.68
2018-03-24T22:16:33.893Z,14.35
2018-03-24T22:19:02.141Z,15.77
2018-03-24T22:21:30.376Z,16.30
2018-03-24T22:23:58.717Z,14.82
2018-03-24T22:26:26.965Z,14.00
2018-03-24T22:28:55.974Z,14.35
2018-03-24T22:31:24.208Z,14.40
2018-03-24T22:33:52.456Z,14.25
2018-03-24T22:36:20.709Z,14.65
2018-03-24T22:38:48.992Z,14.95
2018-03-24T22:41:17.263Z,14.68
2018-03-24T22:43:45.533Z,15.18
2018-03-24T22:46:13.776Z,15.65
2018-03-24T22:48:42.784Z,15.82
2018-03-24T22:51:11.088Z,19.73
2018-03-24T22:53:39.326Z,18.12
2018-03-24T22:56:07.572Z,17.85
2018-03-24T22:58:35.904Z,16.87
2018-03-24T23:01:04.148Z,17.55
2018-03-24T23:03:32.398Z,17.60
2018-03-24T23:06:00.724Z,16.37
2018-03-24T23:08:28.968Z,15.57
2018-03-24T23:10:58.092Z,16.27
2018-03-24T23:13:26.368Z,17.12
2018-03-24T23:15:54.604Z,16.65
2018-03-24T23:18:23.617Z,15.77
2018-03-24T23:20:51.920Z,16.67
2018-03-24T23:23:20.165Z,17.50
2018-03-24T23:25:49.244Z,18.12
2018-03-24T23:28:18.277Z,16.45
2018-03-24T23:30:46.557Z,17.35
2018-03-24T23:33:14.833Z,18.35
2018-03-24T23:35:43.110Z,18.37
2018-03-24T23:38:11.384Z,18.70
2018-03-24T23:40:39.661Z,18.30
2018-03-24T23:43:07.936Z,18.70
2018-03-24T23:45:36.212Z,18.52
2018-03-24T23:48:04.444Z,19.12
2018-03-24T23:50:33.456Z,19.37
2018-03-24T23:53:01.693Z,20.20
2018-03-24T23:55:30.025Z,20.67
2018-03-24T23:57:58.300Z,20.88
